Time;durP1;ratioP1;P1;durP2;ratioP2;P2;SDS_P1;SDS_P2;PMS_P1;PMS_P2;Temp;Humidity;BMP_temperature;BMP_pressure;BME280_temperature;BME280_humidity;BME280_pressure;Samples;Min_cycle;Max_cycle;Signal;HPM_P1;HPM_P2
2022/09/01 00:01:52;;;;;;;13.13;11.40;;;;;;;20.30;61.66;98972.81;7001830;28;20202;-78
2022/09/01 00:05:13;;;;;;;12.00;10.30;;;;;;;20.08;62.01;98941.97;7001415;28;20309;-78
2022/09/01 00:08:35;;;;;;;15.47;12.47;;;;;;;20.17;62.25;98962.28;7001235;28;20232;-78
2022/09/01 00:11:58;;;;;;;13.40;12.20;;;;;;;20.17;62.80;98969.69;7001743;28;20226;-78
2022/09/01 00:15:20;;;;;;;13.23;11.77;;;;;;;20.14;62.63;98970.22;7022260;28;20237;-78
2022/09/01 00:18:42;;;;;;;11.80;10.60;;;;;;;19.66;62.67;98976.63;7029339;28;20577;-78
2022/09/01 00:22:04;;;;;;;12.33;11.03;;;;;;;19.83;61.29;98973.75;7029857;28;20274;-78
2022/09/01 00:25:27;;;;;;;14.10;11.30;;;;;;;19.78;61.51;98981.91;7029241;28;20267;-78
2022/09/01 00:28:51;;;;;;;14.80;11.93;;;;;;;19.79;61.23;98954.28;7028018;28;20319;-78
2022/09/01 00:32:12;;;;;;;14.37;11.73;;;;;;;19.84;61.75;98967.19;7029397;28;20263;-78
2022/09/01 00:35:34;;;;;;;13.00;11.70;;;;;;;20.08;61.71;98974.84;7028997;28;20292;-78
2022/09/01 00:38:56;;;;;;;12.83;11.53;;;;;;;20.18;61.14;98974.09;7028562;28;20204;-78
2022/09/01 00:42:17;;;;;;;13.80;11.03;;;;;;;20.24;60.92;98967.56;7029426;28;20278;-78
2022/09/01 00:45:41;;;;;;;12.73;11.53;;;;;;;20.23;61.16;98963.97;7029446;28;20604;-78
2022/09/01 00:49:06;;;;;;;11.73;10.53;;;;;;;20.15;61.39;98949.94;7028142;28;20236;-78
2022/09/01 00:52:31;;;;;;;11.27;10.27;;;;;;;20.42;59.87;98959.75;7029513;28;20211;-78
2022/09/01 00:55:52;;;;;;;15.73;11.40;;;;;;;20.16;60.70;98960.66;7029044;28;20233;-78
2022/09/01 00:59:15;;;;;;;14.53;11.40;;;;;;;20.31;59.88;98958.03;7031748;28;20197;-78
2022/09/01 01:02:40;;;;;;;11.80;10.70;;;;;;;20.17;60.34;98951.34;7034868;28;20293;-78
2022/09/01 01:06:08;;;;;;;12.13;10.77;;;;;;;20.14;60.00;98946.41;7035023;28;20273;-78
2022/09/01 01:09:32;;;;;;;11.57;9.77;;;;;;;20.25;59.07;98959.09;7033634;28;20304;-78
2022/09/01 01:12:53;;;;;;;11.27;10.00;;;;;;;19.43;60.82;98952.31;7034102;28;20209;-78
2022/09/01 01:16:15;;;;;;;12.10;10.00;;;;;;;19.46;61.33;98954.53;7034232;28;20288;-77
2022/09/01 01:23:39;;;;;;;14.13;12.00;;;;;;;19.40;63.32;98955.56;6980456;28;20621;-78
2022/09/01 01:27:03;;;;;;;11.93;10.70;;;;;;;19.78;62.61;98947.19;7034066;28;20315;-78
2022/09/01 01:30:33;;;;;;;9.83;8.80;;;;;;;19.81;60.22;98954.84;7032075;28;20582;-78
2022/09/01 01:33:57;;;;;;;11.03;9.67;;;;;;;19.48;59.94;98944.16;7033935;28;20559;-78
2022/09/01 01:37:22;;;;;;;10.47;9.10;;;;;;;19.10;60.85;98963.38;7033769;28;20217;-78
2022/09/01 01:40:44;;;;;;;13.73;10.53;;;;;;;19.26;60.84;98962.53;7033804;28;20829;-78
2022/09/01 01:44:07;;;;;;;14.67;11.43;;;;;;;18.86;61.57;98951.06;7033767;28;20287;-78
2022/09/01 01:47:29;;;;;;;14.00;11.03;;;;;;;19.32;61.18;98966.97;7032745;28;20366;-78
2022/09/01 01:50:50;;;;;;;11.40;10.33;;;;;;;19.50;60.56;98968.50;7033115;28;20612;-78
2022/09/01 01:54:12;;;;;;;12.03;10.60;;;;;;;19.25;60.61;98974.53;7033745;28;20205;-78
2022/09/01 01:57:34;;;;;;;14.03;10.97;;;;;;;19.09;60.50;98969.94;7032298;28;20252;-78
2022/09/01 02:00:57;;;;;;;13.17;11.87;;;;;;;18.91;61.90;98978.47;7035041;28;20301;-78
2022/09/01 02:04:20;;;;;;;12.27;10.97;;;;;;;19.27;61.66;98977.84;7033672;28;20228;-78
2022/09/01 02:07:42;;;;;;;12.80;11.50;;;;;;;19.41;61.19;98981.00;7032627;28;20366;-78
2022/09/01 02:11:04;;;;;;;10.80;9.70;;;;;;;19.33;60.73;98981.47;7033159;28;20346;-78
2022/09/01 02:14:26;;;;;;;11.90;10.57;;;;;;;19.00;60.84;98955.09;7024661;28;20225;-77
2022/09/01 02:17:49;;;;;;;12.67;11.37;;;;;;;19.03;61.25;98976.44;7004452;28;20309;-78
2022/09/01 02:21:14;;;;;;;16.57;13.07;;;;;;;18.85;62.12;98974.03;7004829;28;20217;-78
2022/09/01 02:24:35;;;;;;;19.53;15.80;;;;;;;19.21;62.62;98964.38;7004334;28;20226;-78
2022/09/01 02:27:58;;;;;;;15.70;11.70;;;;;;;19.56;61.20;98965.56;7003531;28;20285;-78
2022/09/01 02:31:20;;;;;;;13.23;11.33;;;;;;;19.16;60.75;98967.03;7003774;28;20258;-78
2022/09/01 02:34:44;;;;;;;12.27;11.07;;;;;;;19.17;60.95;98971.41;7004184;28;20235;-77
2022/09/01 02:38:07;;;;;;;12.13;10.87;;;;;;;18.74;61.88;98950.38;7004006;28;20202;-78
2022/09/01 02:41:33;;;;;;;13.93;11.80;;;;;;;18.94;61.45;98956.13;7004095;28;20206;-77
2022/09/01 02:44:55;;;;;;;18.27;12.63;;;;;;;18.84;61.77;98957.88;7004622;28;20269;-77
2022/09/01 02:48:17;;;;;;;16.27;12.97;;;;;;;18.56;62.66;98958.03;7004617;28;20251;-78
2022/09/01 02:51:40;;;;;;;14.93;12.93;;;;;;;18.27;63.34;98961.97;7011086;28;20214;-78
2022/09/01 02:55:01;;;;;;;15.63;13.60;;;;;;;18.66;62.70;98971.84;7006174;28;20248;-78
2022/09/01 02:58:23;;;;;;;15.43;13.20;;;;;;;18.15;62.93;98966.69;7002999;28;20198;-79
2022/09/01 03:01:46;;;;;;;15.03;13.53;;;;;;;18.19;63.43;98970.56;7003054;28;20200;-78
2022/09/01 03:05:08;;;;;;;14.97;13.00;;;;;;;18.21;63.81;98960.25;7003232;28;20798;-77
2022/09/01 03:08:35;;;;;;;14.13;12.63;;;;;;;18.43;63.08;98950.22;7002881;28;20258;-78
2022/09/01 03:11:56;;;;;;;14.10;11.80;;;;;;;18.44;62.22;98954.59;7002976;28;20190;-78
2022/09/01 03:15:18;;;;;;;13.90;12.33;;;;;;;18.53;62.09;98951.22;7003320;28;20316;-78
2022/09/01 03:18:41;;;;;;;16.30;12.57;;;;;;;18.67;61.98;98968.88;7002303;28;20294;-78
2022/09/01 03:22:03;;;;;;;14.53;12.17;;;;;;;18.71;61.75;98953.63;7002110;28;20227;-78
2022/09/01 03:25:28;;;;;;;13.07;11.77;;;;;;;18.56;61.30;98922.53;7002755;28;20230;-78
2022/09/01 03:28:51;;;;;;;14.53;12.80;;;;;;;18.02;62.71;98958.84;7001262;28;20356;-78
2022/09/01 03:32:12;;;;;;;13.43;12.13;;;;;;;18.36;61.88;98966.78;7002143;28;20190;-78
2022/09/01 03:35:34;;;;;;;14.20;12.73;;;;;;;18.45;62.08;98946.16;7002836;28;20253;-77
2022/09/01 03:38:56;;;;;;;14.70;13.20;;;;;;;18.61;61.74;98966.31;7001987;28;20217;-78
2022/09/01 03:42:24;;;;;;;16.83;14.23;;;;;;;18.21;62.31;98965.72;7002423;28;20673;-78
2022/09/01 03:45:46;;;;;;;14.27;12.77;;;;;;;18.69;61.94;98957.69;7002366;28;20225;-78
2022/09/01 03:49:11;;;;;;;15.70;13.70;;;;;;;18.58;61.92;98951.25;7001513;28;20232;-78
2022/09/01 03:52:33;;;;;;;14.17;12.67;;;;;;;18.45;61.72;98968.00;7002481;28;20192;-78
2022/09/01 03:55:56;;;;;;;14.90;12.37;;;;;;;18.30;61.63;98970.50;7001422;28;20233;-77
2022/09/01 03:59:21;;;;;;;15.43;13.80;;;;;;;18.14;62.42;98968.59;7001364;28;20206;-78
2022/09/01 04:02:42;;;;;;;15.00;13.43;;;;;;;18.28;62.32;98967.16;7000748;28;20213;-78
2022/09/01 04:06:04;;;;;;;13.63;12.20;;;;;;;18.23;62.04;98974.47;7000492;28;20232;-78
2022/09/01 04:09:26;;;;;;;14.27;12.10;;;;;;;18.53;61.70;98961.28;6999585;28;20289;-78
2022/09/01 04:12:48;;;;;;;12.50;11.33;;;;;;;18.32;60.70;98945.69;7019964;28;20349;-75
2022/09/01 04:19:54;;;;;;;15.70;12.73;;;;;;;18.08;61.17;98972.31;7000997;28;20246;-78
2022/09/01 04:23:20;;;;;;;13.37;11.97;;;;;;;18.31;61.14;98966.72;7002356;28;20208;-78
2022/09/01 04:26:44;;;;;;;13.67;12.30;;;;;;;18.30;60.99;98969.66;7002602;28;20702;-78
2022/09/01 04:30:09;;;;;;;13.17;11.87;;;;;;;18.35;61.00;98969.75;7001216;28;20323;-78
2022/09/01 04:33:35;;;;;;;15.17;12.67;;;;;;;17.91;62.28;98966.03;7018992;28;20200;-78
2022/09/01 04:36:57;;;;;;;17.77;15.23;;;;;;;17.62;63.82;98974.53;7030466;28;20223;-79
2022/09/01 04:40:22;;;;;;;18.57;14.33;;;;;;;17.86;63.48;98974.13;7026851;28;20260;-79
2022/09/01 04:43:46;;;;;;;22.03;15.87;;;;;;;18.18;62.97;98969.75;7012606;28;20207;-79
2022/09/01 04:47:11;;;;;;;19.10;15.47;;;;;;;18.08;62.22;98972.31;7016455;28;20638;-78
2022/09/01 04:50:34;;;;;;;18.63;16.47;;;;;;;17.91;62.85;98930.59;7028304;28;20231;-78
2022/09/01 04:53:56;;;;;;;18.23;16.40;;;;;;;18.19;63.01;98955.03;7012096;28;20209;-79
2022/09/01 04:57:18;;;;;;;17.83;14.97;;;;;;;18.35;62.68;98975.22;7014437;28;20234;-78
2022/09/01 05:00:40;;;;;;;14.93;13.43;;;;;;;18.22;61.78;98956.44;7030102;28;20280;-78
2022/09/01 05:04:02;;;;;;;15.57;14.00;;;;;;;18.19;62.29;98976.88;7029761;28;20297;-78
2022/09/01 05:07:25;;;;;;;13.60;12.20;;;;;;;18.56;61.55;98968.97;7028833;28;20702;-79
2022/09/01 05:10:49;;;;;;;16.93;13.10;;;;;;;18.26;62.02;98982.13;7028942;28;20224;-78
2022/09/01 05:14:11;;;;;;;14.30;12.80;;;;;;;18.48;61.57;98970.25;7029999;28;20214;-78
2022/09/01 05:17:33;;;;;;;17.87;14.87;;;;;;;17.80;62.75;98956.03;7028121;28;20678;-79
2022/09/01 05:20:56;;;;;;;18.87;15.37;;;;;;;18.45;63.38;98961.72;7029354;28;20214;-78
2022/09/01 05:24:21;;;;;;;16.60;14.90;;;;;;;18.55;62.38;98951.78;7031194;28;20918;-78
2022/09/01 05:27:48;;;;;;;17.30;14.43;;;;;;;18.83;62.64;98976.19;7028853;28;20216;-78
2022/09/01 05:31:11;;;;;;;15.67;14.13;;;;;;;18.47;62.09;98932.25;7028841;28;20344;-78
2022/09/01 05:34:36;;;;;;;16.27;14.67;;;;;;;18.67;62.98;98978.94;7029593;28;20228;-77
2022/09/01 05:37:58;;;;;;;15.17;13.63;;;;;;;19.05;62.63;98973.44;7025980;28;20207;-78
2022/09/01 05:41:22;;;;;;;16.20;13.90;;;;;;;18.95;62.46;98976.06;7037996;28;20207;-78
2022/09/01 05:44:44;;;;;;;16.33;13.90;;;;;;;18.78;62.64;98921.47;7016905;28;20698;-78
2022/09/01 05:48:08;;;;;;;15.70;14.07;;;;;;;19.13;62.06;98960.16;7005276;28;20284;-78
2022/09/01 05:51:33;;;;;;;14.43;13.03;;;;;;;19.30;62.12;98966.41;7032848;28;20257;-78
2022/09/01 05:54:56;;;;;;;15.23;13.63;;;;;;;19.37;62.34;98969.75;7017079;28;20705;-78
2022/09/01 05:58:20;;;;;;;16.73;14.53;;;;;;;19.45;62.08;98976.69;7005819;28;20206;-78
2022/09/01 06:01:42;;;;;;;16.87;14.37;;;;;;;19.28;62.30;98945.88;7006260;28;20223;-78
2022/09/01 06:05:03;;;;;;;13.97;12.63;;;;;;;19.92;61.61;98966.72;7009189;28;20281;-78
2022/09/01 06:08:27;;;;;;;15.90;14.30;;;;;;;20.05;60.53;98958.88;7016464;28;20232;-78
2022/09/01 06:11:49;;;;;;;15.83;13.33;;;;;;;20.23;60.73;98965.91;7008639;28;20210;-78
2022/09/01 06:15:14;;;;;;;13.87;12.47;;;;;;;20.58;59.71;98946.97;7017136;28;20258;-79
2022/09/01 06:18:36;;;;;;;13.60;12.20;;;;;;;21.04;58.15;98968.84;7015471;28;20332;-78
2022/09/01 06:21:58;;;;;;;13.53;12.13;;;;;;;20.31;58.53;98864.09;7006473;28;20673;-78
2022/09/01 06:25:20;;;;;;;13.33;12.03;;;;;;;21.28;58.77;98950.84;7005472;28;20264;-78
2022/09/01 06:28:42;;;;;;;12.80;11.50;;;;;;;22.18;56.02;98949.03;7003268;28;20225;-78
2022/09/01 06:32:09;;;;;;;14.27;12.87;;;;;;;22.15;55.85;98957.84;7009846;28;20201;-78
2022/09/01 06:35:31;;;;;;;15.30;13.80;;;;;;;21.77;56.41;98960.31;7022425;28;20228;-79
2022/09/01 06:38:53;;;;;;;16.40;14.70;;;;;;;21.70;57.50;98955.06;7032513;28;20678;-78
2022/09/01 06:42:16;;;;;;;17.93;14.87;;;;;;;21.86;56.58;98943.03;7032801;28;20205;-78
2022/09/01 06:45:40;;;;;;;15.53;13.93;;;;;;;21.81;56.78;98888.09;7033157;28;20244;-79
2022/09/01 06:49:03;;;;;;;15.13;13.63;;;;;;;22.07;56.62;98903.44;7032674;28;20228;-79
2022/09/01 06:52:25;;;;;;;15.77;14.10;;;;;;;22.20;56.08;98954.25;7033887;28;20199;-78
2022/09/01 06:55:48;;;;;;;15.37;13.97;;;;;;;22.16;56.32;98959.50;7031965;28;20243;-79
2022/09/01 06:59:11;;;;;;;15.37;13.97;;;;;;;22.35;56.48;98968.81;7003579;28;20227;-79
2022/09/01 07:02:33;;;;;;;13.50;12.13;;;;;;;23.17;54.40;98958.16;7004950;28;20213;-78
2022/09/01 07:05:57;;;;;;;15.47;14.03;;;;;;;23.30;54.00;98957.53;7005775;28;20620;-79
2022/09/01 07:09:19;;;;;;;14.03;12.70;;;;;;;23.59;53.41;98958.47;7031731;28;20227;-79
2022/09/01 07:12:43;;;;;;;14.30;12.90;;;;;;;23.77;52.39;98962.50;7031482;28;20216;-79
2022/09/01 07:16:05;;;;;;;14.33;12.87;;;;;;;23.96;51.85;98961.53;7031958;28;20709;-79
2022/09/01 07:19:27;;;;;;;12.87;11.67;;;;;;;25.05;50.60;98958.81;7031793;28;20210;-79
2022/09/01 07:22:51;;;;;;;11.73;10.63;;;;;;;25.59;49.60;98961.97;7026180;28;20209;-78
2022/09/01 07:26:18;;;;;;;11.27;10.10;;;;;;;26.07;48.57;98959.88;7031496;28;20378;-79
2022/09/01 07:29:39;;;;;;;11.70;10.47;;;;;;;26.08;47.15;98973.38;7031169;28;20257;-79
2022/09/01 07:33:01;;;;;;;10.97;9.87;;;;;;;25.72;44.75;98952.13;7031060;28;20197;-78
2022/09/01 07:36:23;;;;;;;9.73;8.77;;;;;;;24.84;47.87;98973.94;7031516;28;20234;-79
2022/09/01 07:39:46;;;;;;;9.90;9.00;;;;;;;24.28;49.07;98983.03;7024115;28;20206;-79
2022/09/01 07:43:13;;;;;;;10.83;9.83;;;;;;;24.25;49.33;98967.91;7037982;28;20204;-78
2022/09/01 07:46:34;;;;;;;10.07;9.17;;;;;;;23.63;50.95;98983.50;7019471;28;20224;-78
2022/09/01 07:49:58;;;;;;;11.17;10.07;;;;;;;23.64;51.13;98987.91;7020486;28;20312;-79
2022/09/01 07:53:22;;;;;;;11.23;10.07;;;;;;;23.53;52.25;98978.03;7019386;28;20210;-79
2022/09/01 07:56:45;;;;;;;12.67;11.47;;;;;;;23.53;51.19;98989.88;7002745;28;20232;-79
2022/09/01 08:00:07;;;;;;;10.83;9.83;;;;;;;23.48;52.88;98991.88;7024396;28;20206;-78
2022/09/01 08:03:30;;;;;;;11.50;10.40;;;;;;;23.97;50.17;98990.75;7030798;28;20215;-80
2022/09/01 08:06:51;;;;;;;11.27;9.50;;;;;;;24.50;49.85;98998.00;7030324;28;20255;-78
2022/09/01 08:10:13;;;;;;;10.27;9.07;;;;;;;23.98;50.46;98991.56;7030318;28;20712;-78
2022/09/01 08:13:37;;;;;;;8.83;8.10;;;;;;;24.00;50.83;98992.06;7030856;28;20242;-78
2022/09/01 08:16:59;;;;;;;9.63;8.73;;;;;;;23.89;49.91;98996.84;7036226;28;20210;-78
2022/09/01 08:20:20;;;;;;;9.50;8.60;;;;;;;23.95;50.21;98954.38;7029641;28;20196;-81
2022/09/01 08:23:42;;;;;;;8.67;7.97;;;;;;;23.29;51.39;98999.09;7003129;28;20211;-78
2022/09/01 08:27:04;;;;;;;7.67;6.97;;;;;;;24.11;48.52;98991.72;7002617;28;20243;-79
2022/09/01 08:30:27;;;;;;;7.93;6.90;;;;;;;23.70;49.95;99000.53;7001956;28;20224;-79
2022/09/01 08:33:50;;;;;;;9.40;8.40;;;;;;;23.41;50.69;98989.41;7006708;28;20582;-79
2022/09/01 08:37:12;;;;;;;9.20;8.33;;;;;;;24.06;49.89;98997.28;7031277;28;20224;-79
2022/09/01 08:40:33;;;;;;;9.93;7.67;;;;;;;24.49;48.73;98995.53;7031002;28;20677;-79
2022/09/01 08:44:02;;;;;;;8.93;7.80;;;;;;;24.86;47.17;99007.59;7031314;28;20224;-80
2022/09/01 08:47:25;;;;;;;8.67;7.87;;;;;;;24.68;47.64;98990.97;7029941;28;20900;-81
2022/09/01 08:50:49;;;;;;;7.67;6.90;;;;;;;24.85;47.27;99003.19;7030724;28;20237;-80
2022/09/01 08:54:16;;;;;;;7.57;6.73;;;;;;;25.20;46.81;99011.03;7030996;28;20237;-80
2022/09/01 08:57:39;;;;;;;7.43;6.73;;;;;;;24.68;48.04;99013.84;7030447;28;20255;-79
2022/09/01 09:01:04;;;;;;;7.37;6.67;;;;;;;24.41;49.43;98999.72;7030123;28;20211;-79
2022/09/01 09:04:37;;;;;;;7.30;6.60;;;;;;;24.95;47.20;99005.81;7031613;28;20228;-79
2022/09/01 09:08:26;;;;;;;6.63;6.03;;;;;;;25.13;45.84;99007.00;7030669;28;20256;-80
2022/09/01 09:12:08;;;;;;;5.60;5.07;;;;;;;24.83;45.60;99016.44;7019645;28;20713;-80
2022/09/01 09:15:38;;;;;;;5.53;5.00;;;;;;;25.07;44.98;98989.69;7008881;28;20228;-79
2022/09/01 09:19:05;;;;;;;5.20;4.80;;;;;;;25.58;44.50;99009.19;7021456;28;20220;-80
2022/09/01 09:22:28;;;;;;;5.53;5.07;;;;;;;24.52;47.24;99015.06;7021841;28;20211;-79
2022/09/01 09:25:49;;;;;;;6.20;5.37;;;;;;;25.53;44.54;99012.88;7007972;28;20287;-80
2022/09/01 09:29:11;;;;;;;5.40;4.90;;;;;;;25.58;44.59;99011.97;7030291;28;20210;-78
2022/09/01 09:32:48;;;;;;;5.63;5.03;;;;;;;23.88;47.31;99006.22;7009437;28;20212;-80
2022/09/01 09:36:19;;;;;;;5.77;5.27;;;;;;;24.62;46.53;98998.47;7008181;28;20223;-79
2022/09/01 09:39:42;;;;;;;5.40;5.00;;;;;;;25.30;45.65;99010.16;7007024;28;20683;-81
2022/09/01 09:43:06;;;;;;;5.27;4.77;;;;;;;25.50;45.01;99007.13;7007802;28;20206;-79
2022/09/01 09:46:34;;;;;;;6.57;5.17;;;;;;;25.97;43.63;98999.56;7007330;28;20220;-79
2022/09/01 09:50:12;;;;;;;5.03;4.63;;;;;;;25.51;44.04;98994.94;7019051;28;20225;-80
2022/09/01 09:53:34;;;;;;;5.70;5.10;;;;;;;25.70;43.11;98998.53;7036108;28;20272;-82
2022/09/01 09:57:10;;;;;;;5.00;4.60;;;;;;;25.98;43.16;99003.97;7007713;28;20241;-80
2022/09/01 10:00:33;;;;;;;5.60;5.10;;;;;;;26.08;42.71;98984.44;7007642;28;20188;-80
2022/09/01 10:03:57;;;;;;;5.17;4.77;;;;;;;26.33;43.30;98989.56;7007082;28;20211;-80
2022/09/01 10:07:29;;;;;;;5.57;4.30;;;;;;;26.37;42.52;98984.25;7006797;28;20237;-81
2022/09/01 10:10:51;;;;;;;5.67;5.17;;;;;;;25.33;43.40;98992.97;7033779;28;20227;-81
2022/09/01 10:14:17;;;;;;;4.97;4.50;;;;;;;25.11;45.02;98992.66;7035556;28;20232;-80
2022/09/01 10:17:41;;;;;;;4.73;4.27;;;;;;;26.58;42.00;98974.47;7035906;28;20207;-80
2022/09/01 10:21:06;;;;;;;6.97;5.00;;;;;;;25.66;43.60;98983.69;7038649;28;20205;-81
2022/09/01 10:24:30;;;;;;;4.93;4.47;;;;;;;25.43;43.97;98995.63;7011205;28;20227;-80
2022/09/01 10:27:56;;;;;;;4.70;4.20;;;;;;;25.12;44.79;98991.56;7007076;28;20210;-81
2022/09/01 10:31:20;;;;;;;4.57;4.17;;;;;;;26.12;42.16;98979.97;7006725;28;20213;-81
2022/09/01 10:34:42;;;;;;;4.87;4.43;;;;;;;24.09;46.72;98993.97;7007157;28;20222;-81
2022/09/01 10:38:06;;;;;;;5.10;4.63;;;;;;;24.58;44.54;98967.06;7010093;28;20210;-81
2022/09/01 10:41:52;;;;;;;4.93;4.53;;;;;;;24.72;45.13;98984.56;7006235;28;20208;-80
2022/09/01 10:45:21;;;;;;;5.00;4.50;;;;;;;24.81;45.24;98984.75;7006183;28;20261;-83
2022/09/01 10:48:45;;;;;;;4.83;4.43;;;;;;;25.33;43.83;98935.00;7010040;28;20207;-80
2022/09/01 10:52:06;;;;;;;4.23;3.83;;;;;;;26.28;42.96;98969.47;7033890;28;20301;-83
2022/09/01 10:55:48;;;;;;;5.17;4.67;;;;;;;26.48;42.39;98989.28;7008876;28;20289;-82
2022/09/01 10:59:11;;;;;;;4.33;3.97;;;;;;;26.82;41.02;98934.47;7006603;28;20214;-81
2022/09/01 11:02:33;;;;;;;4.77;4.27;;;;;;;27.18;41.01;98968.63;7011243;28;20208;-82
2022/09/01 11:06:05;;;;;;;4.50;4.20;;;;;;;27.20;39.81;98922.06;7013453;28;20663;-79
2022/09/01 11:09:33;;;;;;;3.93;3.63;;;;;;;27.51;39.24;98955.44;7008828;28;20193;-82
2022/09/01 11:13:13;;;;;;;4.10;3.80;;;;;;;26.80;40.69;98967.16;7016637;28;20198;-81
2022/09/01 11:16:36;;;;;;;4.33;3.93;;;;;;;25.34;42.90;98958.72;7019349;28;20880;-81
2022/09/01 11:20:07;;;;;;;5.07;4.33;;;;;;;26.51;40.81;98963.81;7016283;28;20206;-81
2022/09/01 11:23:31;;;;;;;4.80;4.40;;;;;;;26.36;41.71;98952.19;7034951;28;20191;-81
2022/09/01 11:26:52;;;;;;;5.10;4.70;;;;;;;25.22;44.20;98947.28;7045646;28;20279;-81
2022/09/01 11:30:17;;;;;;;6.50;4.07;;;;;;;25.96;42.83;98953.69;7044083;28;20225;-82
2022/09/01 11:34:08;;;;;;;4.80;4.40;;;;;;;26.18;42.33;98959.41;7044799;28;20210;-81
2022/09/01 11:37:30;;;;;;;3.93;3.63;;;;;;;26.77;40.90;98937.31;7043080;28;20205;-81
2022/09/01 11:40:56;;;;;;;3.93;3.63;;;;;;;27.40;40.70;98941.00;7030720;28;20212;-84
2022/09/01 11:44:23;;;;;;;4.17;3.80;;;;;;;27.41;39.02;98948.19;7026171;28;20190;-80
2022/09/01 11:47:45;;;;;;;4.10;3.80;;;;;;;27.15;39.33;98952.59;7022357;28;20271;-78
2022/09/01 11:51:07;;;;;;;3.70;3.40;;;;;;;27.27;38.89;98943.78;7027633;28;20591;-78
2022/09/01 11:54:31;;;;;;;3.80;3.50;;;;;;;27.86;37.52;98938.88;7036107;28;20243;-78
2022/09/01 11:57:53;;;;;;;3.53;3.23;;;;;;;28.23;36.92;98924.59;7018653;28;20210;-79
2022/09/01 12:01:18;;;;;;;3.50;3.30;;;;;;;28.28;36.96;98927.25;7007065;28;20870;-78
2022/09/01 12:04:39;;;;;;;3.20;3.00;;;;;;;28.38;37.17;98931.75;7006966;28;20281;-78
2022/09/01 12:08:03;;;;;;;3.80;3.50;;;;;;;28.27;37.17;98916.47;7006078;28;20564;-78
2022/09/01 12:11:29;;;;;;;4.50;3.40;;;;;;;28.44;36.73;98922.16;7009039;28;20229;-80
2022/09/01 12:14:57;;;;;;;4.57;4.10;;;;;;;27.27;37.99;98899.50;7009569;28;20295;-79
2022/09/01 12:18:21;;;;;;;4.10;3.70;;;;;;;28.27;37.16;98922.84;7007322;28;20207;-79
2022/09/01 12:21:44;;;;;;;4.23;3.83;;;;;;;28.10;37.10;98919.97;7024043;28;20209;-80
2022/09/01 12:25:06;;;;;;;5.30;3.70;;;;;;;27.86;37.12;98910.31;7038719;28;20234;-80
2022/09/01 12:28:30;;;;;;;4.17;3.77;;;;;;;28.60;35.93;98918.63;7041100;28;20210;-79
2022/09/01 12:31:54;;;;;;;5.73;4.27;;;;;;;28.73;35.87;98914.13;7047648;28;20796;-80
2022/09/01 12:35:18;;;;;;;4.17;3.87;;;;;;;28.82;36.24;98917.75;7052549;28;20230;-80
2022/09/01 12:38:39;;;;;;;4.00;3.70;;;;;;;29.51;34.66;98914.88;7040561;28;20288;-80
2022/09/01 12:42:07;;;;;;;4.70;3.90;;;;;;;29.11;35.08;98924.44;7024006;28;20196;-81
2022/09/01 12:45:43;;;;;;;4.37;3.97;;;;;;;28.69;36.47;98922.28;7016059;28;20735;-79
2022/09/01 12:49:18;;;;;;;5.57;3.90;;;;;;;29.46;34.28;98909.47;7027908;28;20202;-80
2022/09/01 12:52:46;;;;;;;4.70;4.30;;;;;;;28.44;36.09;98908.28;7029534;28;20219;-79
2022/09/01 12:56:20;;;;;;;4.43;3.77;;;;;;;28.26;36.03;98907.31;7042801;28;20225;-79
2022/09/01 12:59:41;;;;;;;4.27;3.50;;;;;;;29.05;34.44;98917.38;7043405;28;20577;-79
2022/09/01 13:03:12;;;;;;;4.07;3.40;;;;;;;28.53;35.36;98915.50;7045137;28;20228;-79
2022/09/01 13:06:36;;;;;;;3.47;3.10;;;;;;;27.54;36.43;98910.50;7042844;28;20225;-79
2022/09/01 13:09:57;;;;;;;3.67;3.37;;;;;;;27.54;35.48;98896.66;7047282;28;20209;-79
2022/09/01 13:13:19;;;;;;;3.90;3.57;;;;;;;28.15;35.50;98899.59;7039778;28;20209;-79
2022/09/01 13:16:41;;;;;;;3.70;3.37;;;;;;;28.77;34.27;98893.75;7040044;28;20273;-80
2022/09/01 13:20:03;;;;;;;4.40;3.50;;;;;;;28.44;35.42;98908.28;7038978;28;20213;-79
2022/09/01 13:23:26;;;;;;;4.80;3.70;;;;;;;28.85;34.32;98858.81;7038309;28;20212;-79
2022/09/01 13:26:54;;;;;;;3.90;3.10;;;;;;;29.40;33.93;98891.31;7039562;28;20222;-79
2022/09/01 13:30:17;;;;;;;3.73;3.43;;;;;;;28.82;33.90;98890.81;7038559;28;20265;-79
2022/09/01 13:33:39;;;;;;;3.30;3.10;;;;;;;28.77;35.64;98887.38;7038847;28;20208;-79
2022/09/01 13:37:01;;;;;;;3.70;3.40;;;;;;;28.01;37.07;98893.31;7039141;28;20217;-80
2022/09/01 13:40:24;;;;;;;16.20;4.37;;;;;;;27.64;37.79;98899.16;7039304;28;20734;-80
2022/09/01 13:43:46;;;;;;;7.40;3.57;;;;;;;27.19;38.34;98853.97;7038904;28;20623;-79
2022/09/01 13:47:07;;;;;;;3.73;3.43;;;;;;;27.65;37.94;98889.75;7018607;28;20222;-80
2022/09/01 13:50:29;;;;;;;4.10;3.57;;;;;;;26.81;37.92;98891.31;7023691;28;20217;-79
2022/09/01 13:53:51;;;;;;;3.87;3.57;;;;;;;26.05;39.58;98887.50;7033625;28;20810;-79
2022/09/01 13:57:15;;;;;;;3.27;3.07;;;;;;;27.00;38.39;98885.66;7037650;28;20278;-79
2022/09/01 14:00:38;;;;;;;4.40;3.63;;;;;;;26.74;38.33;98871.53;7037315;28;20294;-79
2022/09/01 14:04:02;;;;;;;3.80;3.43;;;;;;;27.96;36.92;98866.53;7036171;28;20291;-79
2022/09/01 14:07:24;;;;;;;3.60;3.30;;;;;;;28.78;35.93;98864.84;7009875;28;20206;-79
2022/09/01 14:10:47;;;;;;;3.00;2.80;;;;;;;29.03;34.36;98869.69;7037780;28;20367;-79
2022/09/01 14:14:10;;;;;;;3.17;2.90;;;;;;;27.57;36.93;98869.16;7037823;28;20205;-79
2022/09/01 14:17:32;;;;;;;2.73;2.53;;;;;;;28.16;35.52;98846.59;7040473;28;20276;-79
2022/09/01 14:20:55;;;;;;;2.93;2.67;;;;;;;28.23;35.25;98866.38;7040537;28;20198;-80
2022/09/01 14:24:18;;;;;;;3.10;2.90;;;;;;;28.05;34.27;98870.19;7040025;28;20212;-80
2022/09/01 14:27:41;;;;;;;2.77;2.57;;;;;;;28.62;33.73;98854.50;7047800;28;20614;-81
2022/09/01 14:31:08;;;;;;;3.40;3.00;;;;;;;28.41;34.93;98834.84;7039704;28;20242;-80
2022/09/01 14:34:30;;;;;;;2.90;2.60;;;;;;;27.34;35.90;98852.81;7036166;28;20252;-80
2022/09/01 14:37:52;;;;;;;119.80;9.70;;;;;;;27.97;34.72;98842.41;7039135;28;20212;-80
2022/09/01 14:41:14;;;;;;;83.60;8.67;;;;;;;28.05;34.74;98838.84;7039405;28;20319;-80
2022/09/01 14:44:36;;;;;;;25.40;3.40;;;;;;;28.03;34.67;98835.59;7039693;28;20229;-80
2022/09/01 14:48:00;;;;;;;40.03;5.40;;;;;;;28.31;34.36;98832.31;7039439;28;20205;-80
2022/09/01 14:51:24;;;;;;;3.10;2.80;;;;;;;28.16;33.70;98826.34;7038643;28;20591;-80
2022/09/01 14:54:45;;;;;;;3.10;2.60;;;;;;;27.43;35.33;98817.69;7040581;28;20266;-80
2022/09/01 14:58:07;;;;;;;2.83;2.63;;;;;;;27.90;34.95;98814.31;7039301;28;20277;-80
2022/09/01 15:01:28;;;;;;;36.77;4.87;;;;;;;28.52;34.36;98819.53;7038792;28;20270;-80
2022/09/01 15:04:51;;;;;;;5.47;3.00;;;;;;;28.41;34.76;98809.88;7038604;28;20221;-80
2022/09/01 15:08:13;;;;;;;393.53;32.70;;;;;;;27.41;35.89;98751.53;7038741;28;20300;-81
2022/09/01 15:11:35;;;;;;;178.70;16.90;;;;;;;28.19;35.19;98815.44;7038327;28;20217;-80
2022/09/01 15:14:56;;;;;;;24.97;4.47;;;;;;;27.28;36.31;98806.97;7038720;28;20727;-80
2022/09/01 15:18:18;;;;;;;2.90;2.70;;;;;;;26.88;36.30;98833.59;7037027;28;20350;-80
2022/09/01 15:21:42;;;;;;;3.73;2.93;;;;;;;26.50;37.36;98823.88;7039449;28;20626;-81
2022/09/01 15:25:05;;;;;;;2.97;2.67;;;;;;;26.48;37.20;98822.56;7040636;28;20232;-81
2022/09/01 15:28:26;;;;;;;6.50;2.77;;;;;;;26.82;35.65;98811.88;7038952;28;20299;-80
2022/09/01 15:31:48;;;;;;;3.37;3.00;;;;;;;26.56;36.45;98827.38;7024239;28;20224;-80
2022/09/01 15:35:11;;;;;;;2.90;2.70;;;;;;;26.02;38.10;98827.31;7026837;28;20221;-80
2022/09/01 15:38:34;;;;;;;3.53;2.97;;;;;;;26.93;36.50;98821.59;7018729;28;20217;-80
2022/09/01 15:41:55;;;;;;;5.87;3.07;;;;;;;27.47;35.97;98811.22;7039980;28;20201;-80
2022/09/01 15:45:19;;;;;;;3.80;2.63;;;;;;;28.19;35.27;98811.88;7041922;28;20240;-80
2022/09/01 15:48:42;;;;;;;3.37;3.07;;;;;;;27.31;35.76;98786.97;7045500;28;20459;-80
2022/09/01 15:52:05;;;;;;;4.07;3.07;;;;;;;27.67;34.26;98813.47;7051609;28;20233;-80
2022/09/01 15:55:30;;;;;;;2.93;2.73;;;;;;;27.99;34.31;98809.63;7015798;28;20233;-81